Pu Dun — XUUB9 — position and weather

sailwx.info

Track history (hours):
 
Tides and Currents Weather Stations Pressure Air Temp Water Temp Dewpoint Dewpoint Depression Visibility Wind Speed Wind Dir Waves Ship Positions

Pu Dun

Last reported at 2015-Feb-19 20:33 UTC. Time now 2015-Feb-28 12:31 UTC.
Position N 37°36' E 122°24'.
Warning: this ship's position is 8 days out of date.

Length 75 m; draft 3.5 m.

Type: Cargo ship. MMSI: 515213000.

Date/timePositionNaut miles runAvg speedWind from/ knotsBaromVisibWave heightAir tempDewpointWater temp
2015-Feb-19 20:33N 37°36' E 122°24'1210.5
2015-Feb-19 19:22N 37°40' E 122°09'2010.8
2015-Feb-19 17:33N 37°47' E 121°46'1010.1
2015-Feb-19 16:33N 37°51' E 121°34'10 9.8
2015-Feb-19 15:33N 37°53' E 121°22'175 5.3
2015-Feb-18 06:20N 38°57' E 117°54'7 9.2
2015-Feb-18 05:33N 38°59' E 117°45'0 0.5
2015-Feb-18 04:33N 38°59' E 117°45'0 0.0
2015-Feb-18 03:26N 38°59' E 117°45'0 0.0
2015-Feb-18 02:32N 38°59' E 117°45'0 0.0
2015-Feb-18 01:26N 38°59' E 117°45'0 0.0
2015-Feb-18 00:32N 38°59' E 117°45'0 0.0
2015-Feb-17 23:32N 38°59' E 117°45'2 1.6
2015-Feb-17 22:33N 38°58' E 117°46'10 4.6
2015-Feb-17 20:15N 38°58' E 117°60'0 0.0
2015-Feb-17 11:27N 38°58' E 117°60'0 0.0
2015-Feb-17 10:27N 38°58' E 117°60'180 5.6
2015-Feb-16 02:28N 37°51' E 121°33'4210.1
2015-Feb-15 22:18N 37°39' E 122°24'  
2015-Feb-12 01:34N 34°38' E 134°58'8 7.8
2015-Feb-12 00:33N 34°32' E 135°05'1110.5
2015-Feb-11 23:33N 34°22' E 135°01'10 9.8
2015-Feb-11 22:30N 34°12' E 135°00'  
Track history (hours):
 
Tides and Currents Weather Stations Pressure Air Temp Water Temp Dewpoint Dewpoint Depression Visibility Wind Speed Wind Dir Waves Ship Positions

Pu Dun

Last reported at 2015-Feb-19 20:33 UTC. Time now 2015-Feb-28 12:31 UTC.
Position N 37°36' E 122°24'.
Warning: this ship's position is 8 days out of date.

Length 75 m; draft 3.5 m.

Type: Cargo ship. MMSI: 515213000.

Date/timePositionNaut miles runAvg speedWind from/ knotsBaromVisibWave heightAir tempDewpointWater temp
2015-Feb-19 20:33N 37°36' E 122°24'1210.5
2015-Feb-19 19:22N 37°40' E 122°09'2010.8
2015-Feb-19 17:33N 37°47' E 121°46'1010.1
2015-Feb-19 16:33N 37°51' E 121°34'10 9.8
2015-Feb-19 15:33N 37°53' E 121°22'175 5.3
2015-Feb-18 06:20N 38°57' E 117°54'7 9.2
2015-Feb-18 05:33N 38°59' E 117°45'0 0.5
2015-Feb-18 04:33N 38°59' E 117°45'0 0.0
2015-Feb-18 03:26N 38°59' E 117°45'0 0.0
2015-Feb-18 02:32N 38°59' E 117°45'0 0.0
2015-Feb-18 01:26N 38°59' E 117°45'0 0.0
2015-Feb-18 00:32N 38°59' E 117°45'0 0.0
2015-Feb-17 23:32N 38°59' E 117°45'2 1.6
2015-Feb-17 22:33N 38°58' E 117°46'10 4.6
2015-Feb-17 20:15N 38°58' E 117°60'0 0.0
2015-Feb-17 11:27N 38°58' E 117°60'0 0.0
2015-Feb-17 10:27N 38°58' E 117°60'180 5.6
2015-Feb-16 02:28N 37°51' E 121°33'4210.1
2015-Feb-15 22:18N 37°39' E 122°24'  
2015-Feb-12 01:34N 34°38' E 134°58'8 7.8
2015-Feb-12 00:33N 34°32' E 135°05'1110.5
2015-Feb-11 23:33N 34°22' E 135°01'10 9.8
2015-Feb-11 22:30N 34°12' E 135°00'  

Dump ship's entire track history